createdAt,value
2023-04-02T00:01:02.634Z,0.60
2023-04-02T00:03:44.545Z,0.68
2023-04-02T00:06:45.332Z,0.60
2023-04-02T00:09:14.812Z,0.85
2023-04-02T00:11:44.611Z,0.68
2023-04-02T00:14:29.428Z,0.60
2023-04-02T00:16:58.078Z,0.50
2023-04-02T00:19:36.598Z,0.60
2023-04-02T00:22:07.628Z,0.75
2023-04-02T00:24:34.267Z,0.52
2023-04-02T00:27:00.964Z,0.55
2023-04-02T00:29:27.474Z,1.27
2023-04-02T00:31:54.708Z,0.80
2023-04-02T00:34:23.743Z,0.60
2023-04-02T00:36:51.031Z,0.50
2023-04-02T00:39:29.798Z,0.60
2023-04-02T00:42:04.777Z,0.43
2023-04-02T00:44:38.469Z,0.43
2023-04-02T00:47:31.796Z,0.60
2023-04-02T00:50:05.594Z,0.65
2023-04-02T00:52:32.989Z,0.70
2023-04-02T00:55:37.425Z,0.80
2023-04-02T00:58:15.649Z,0.50
2023-04-02T01:00:49.448Z,0.40
2023-04-02T01:03:19.377Z,0.50
2023-04-02T01:06:15.410Z,0.50
2023-04-02T01:09:05.953Z,0.30
2023-04-02T01:11:55.159Z,0.43
2023-04-02T01:14:37.364Z,0.52
2023-04-02T01:17:19.880Z,0.60
2023-04-02T01:20:01.468Z,0.45
2023-04-02T01:22:48.197Z,0.50
2023-04-02T01:25:24.918Z,0.73
2023-04-02T01:28:08.315Z,0.80
2023-04-02T01:30:36.538Z,0.50
2023-04-02T01:33:05.039Z,0.40
2023-04-02T01:35:36.494Z,1.10
2023-04-02T01:38:08.442Z,1.00
2023-04-02T01:40:54.424Z,0.60
2023-04-02T01:43:49.679Z,0.38
2023-04-02T01:46:31.963Z,0.47
2023-04-02T01:49:02.713Z,0.70
2023-04-02T01:51:33.291Z,0.60
2023-04-02T01:54:03.231Z,0.50
2023-04-02T01:56:30.447Z,0.50
2023-04-02T01:58:58.435Z,0.47
2023-04-02T02:01:32.042Z,0.50
2023-04-02T02:03:59.830Z,0.40
2023-04-02T02:06:26.372Z,0.65
2023-04-02T02:08:57.759Z,0.50
2023-04-02T02:11:28.205Z,0.80
2023-04-02T02:14:20.680Z,0.50
2023-04-02T02:16:48.221Z,0.70
2023-04-02T02:19:42.092Z,0.70
2023-04-02T02:22:14.389Z,0.60
2023-04-02T02:24:42.085Z,0.73
2023-04-02T02:27:23.626Z,0.60
2023-04-02T02:29:53.234Z,0.50
2023-04-02T02:32:23.592Z,0.52
2023-04-02T02:34:59.936Z,0.50
2023-04-02T02:37:33.800Z,0.60
2023-04-02T02:40:03.885Z,0.73
2023-04-02T02:42:54.370Z,0.60
2023-04-02T02:45:26.325Z,0.60
2023-04-02T02:47:55.326Z,0.75
2023-04-02T02:50:31.570Z,0.50
2023-04-02T02:53:00.441Z,0.50
2023-04-02T02:55:36.822Z,1.00
2023-04-02T02:58:09.637Z,0.60
2023-04-02T03:00:37.556Z,0.70
2023-04-02T03:03:22.007Z,0.63
2023-04-02T03:06:02.102Z,0.43
2023-04-02T03:08:41.644Z,0.60
2023-04-02T03:11:49.694Z,0.60
2023-04-02T03:14:31.743Z,0.77
2023-04-02T03:17:14.793Z,1.15
2023-04-02T03:19:48.970Z,0.63
2023-04-02T03:22:24.059Z,0.60
2023-04-02T03:25:05.771Z,1.00
2023-04-02T03:27:39.280Z,0.60
2023-04-02T03:30:39.775Z,1.00
2023-04-02T03:33:38.753Z,0.68
2023-04-02T03:36:14.101Z,0.65
2023-04-02T03:38:51.926Z,0.80
2023-04-02T03:41:29.388Z,0.80
2023-04-02T03:44:00.656Z,1.08
2023-04-02T03:46:49.230Z,2.15
2023-04-02T03:49:34.812Z,1.90
2023-04-02T03:52:13.397Z,1.75
2023-04-02T03:54:40.860Z,1.30
2023-04-02T03:57:23.780Z,1.23
2023-04-02T04:00:08.295Z,1.20
2023-04-02T04:02:42.974Z,1.00
2023-04-02T04:05:22.666Z,1.13
2023-04-02T04:07:53.522Z,1.00
2023-04-02T04:10:25.931Z,1.00
2023-04-02T04:12:56.712Z,1.20
2023-04-02T04:15:42.843Z,1.20
2023-04-02T04:18:21.580Z,1.20
2023-04-02T04:20:57.237Z,1.20
2023-04-02T04:23:32.719Z,1.02
2023-04-02T04:26:09.858Z,1.25
2023-04-02T04:28:48.893Z,1.30
2023-04-02T04:31:22.833Z,1.35
2023-04-02T04:34:03.061Z,1.10
2023-04-02T04:36:36.660Z,1.85
2023-04-02T04:39:14.523Z,1.60
2023-04-02T04:41:43.037Z,1.45
2023-04-02T04:44:23.753Z,1.13
2023-04-02T04:47:01.906Z,1.33
2023-04-02T04:49:35.929Z,1.10
2023-04-02T04:52:14.473Z,1.23
2023-04-02T04:54:41.133Z,0.93
2023-04-02T04:57:22.237Z,1.27
2023-04-02T04:59:57.256Z,1.63
2023-04-02T05:02:30.239Z,1.23
2023-04-02T05:04:56.971Z,1.35
2023-04-02T05:07:29.357Z,1.40
2023-04-02T05:09:55.798Z,1.33
2023-04-02T05:12:43.684Z,1.27
2023-04-02T05:15:23.365Z,1.10
2023-04-02T05:18:02.071Z,1.35
2023-04-02T05:20:58.909Z,1.23
2023-04-02T05:23:30.958Z,1.35
2023-04-02T05:26:00.367Z,1.20
2023-04-02T05:28:40.624Z,1.00
2023-04-02T05:31:12.201Z,1.20
2023-04-02T05:33:40.485Z,1.10
2023-04-02T05:36:12.717Z,1.15
2023-04-02T05:38:44.921Z,1.10
2023-04-02T05:41:38.271Z,1.00
2023-04-02T05:44:29.856Z,1.17
2023-04-02T05:47:06.665Z,1.17
2023-04-02T05:52:03.427Z,1.00
2023-04-02T05:54:44.040Z,1.15
2023-04-02T05:57:17.108Z,1.08
2023-04-02T05:59:49.755Z,1.20
2023-04-02T06:02:33.452Z,1.40
2023-04-02T06:05:06.559Z,0.93
2023-04-02T06:07:41.944Z,1.25
2023-04-02T06:10:24.624Z,1.15
2023-04-02T06:13:03.428Z,1.05
2023-04-02T06:15:32.341Z,1.30
2023-04-02T06:18:00.464Z,1.40
2023-04-02T06:20:27.521Z,1.20
2023-04-02T06:23:02.297Z,1.08
2023-04-02T06:25:33.637Z,1.20
2023-04-02T06:28:03.696Z,1.60
2023-04-02T06:30:37.784Z,7.25
2023-04-02T06:33:05.671Z,1.20
2023-04-02T06:35:35.595Z,1.10
2023-04-02T06:38:06.308Z,1.02
2023-04-02T06:40:38.831Z,1.20
2023-04-02T06:43:14.509Z,1.20
2023-04-02T06:45:43.420Z,1.00
2023-04-02T06:48:19.809Z,1.10
2023-04-02T06:50:59.505Z,1.70
2023-04-02T06:53:46.961Z,0.77
2023-04-02T06:56:19.801Z,1.10
2023-04-02T06:58:46.482Z,1.10
2023-04-02T07:01:23.791Z,0.98
2023-04-02T07:03:50.427Z,0.73
2023-04-02T07:06:19.157Z,1.00
2023-04-02T07:08:45.654Z,0.60
2023-04-02T07:11:20.167Z,0.80
2023-04-02T07:13:47.939Z,0.60
2023-04-02T07:16:17.455Z,0.80
2023-04-02T07:18:44.605Z,0.80
2023-04-02T07:21:11.239Z,0.60
2023-04-02T07:23:37.996Z,0.80
2023-04-02T07:26:05.770Z,0.60
2023-04-02T07:28:32.696Z,0.70
2023-04-02T07:30:59.256Z,0.60
2023-04-02T07:33:28.670Z,0.60
2023-04-02T07:35:57.571Z,0.60
2023-04-02T07:38:24.497Z,0.60
2023-04-02T07:40:50.940Z,0.80
2023-04-02T07:43:17.328Z,0.80
2023-04-02T07:45:43.797Z,0.50
2023-04-02T07:48:14.041Z,0.60
2023-04-02T07:50:40.744Z,0.82
2023-04-02T07:53:08.744Z,0.73
2023-04-02T07:55:35.540Z,1.00
2023-04-02T07:58:03.268Z,0.77
2023-04-02T08:00:29.786Z,0.82
2023-04-02T08:02:56.560Z,0.85
2023-04-02T08:05:23.149Z,0.70
2023-04-02T08:07:57.078Z,0.82
2023-04-02T08:10:23.872Z,0.80
2023-04-02T08:12:50.510Z,0.88
2023-04-02T08:15:17.663Z,0.73
2023-04-02T08:17:44.340Z,2.65
2023-04-02T08:20:22.549Z,0.88
2023-04-02T08:22:50.083Z,0.73
2023-04-02T08:25:17.159Z,2.28
2023-04-02T08:27:46.947Z,1.50
2023-04-02T08:30:14.616Z,0.75
2023-04-02T08:32:41.435Z,1.83
2023-04-02T08:35:10.916Z,2.88
2023-04-02T08:37:38.105Z,1.08
2023-04-02T08:40:07.290Z,1.10
2023-04-02T08:42:42.782Z,1.02
2023-04-02T08:45:43.331Z,0.95
2023-04-02T08:48:11.786Z,1.55
2023-04-02T08:50:41.498Z,1.50
2023-04-02T08:53:22.182Z,1.52
2023-04-02T08:56:05.693Z,0.73
2023-04-02T08:59:03.317Z,1.05
2023-04-02T09:01:34.964Z,1.30
2023-04-02T09:04:05.337Z,1.00
2023-04-02T09:06:34.566Z,1.20
2023-04-02T09:09:01.174Z,1.10
2023-04-02T09:11:36.098Z,1.08
2023-04-02T09:14:10.057Z,1.08
2023-04-02T09:16:42.104Z,1.45
2023-04-02T09:19:40.240Z,1.08
2023-04-02T09:22:16.530Z,0.95
2023-04-02T09:24:42.890Z,0.98
2023-04-02T09:27:24.542Z,1.00
2023-04-02T09:30:03.916Z,0.90
2023-04-02T09:32:50.127Z,0.88
2023-04-02T09:35:26.163Z,0.90
2023-04-02T09:40:51.058Z,0.88
2023-04-02T09:43:38.310Z,0.80
2023-04-02T09:46:13.686Z,0.60
2023-04-02T09:48:58.350Z,0.73
2023-04-02T09:51:31.903Z,0.80
2023-04-02T09:54:04.140Z,0.60
2023-04-02T09:56:32.918Z,0.68
2023-04-02T09:59:07.044Z,0.80
2023-04-02T10:01:35.444Z,0.73
2023-04-02T10:04:03.898Z,0.50
2023-04-02T10:06:31.819Z,0.30
2023-04-02T10:08:59.313Z,0.40
2023-04-02T10:11:45.758Z,2.55
2023-04-02T10:14:21.609Z,4.20
2023-04-02T10:16:55.881Z,0.70
2023-04-02T10:19:34.594Z,0.50
2023-04-02T10:22:06.168Z,0.30
2023-04-02T10:24:32.692Z,0.40
2023-04-02T10:27:37.564Z,1.00
2023-04-02T10:30:19.204Z,3.35
2023-04-02T10:32:54.826Z,1.20
2023-04-02T10:35:44.737Z,0.68
2023-04-02T10:38:27.940Z,0.80
2023-04-02T10:40:59.319Z,0.80
2023-04-02T10:43:50.827Z,0.75
2023-04-02T10:46:32.535Z,0.60
2023-04-02T10:49:23.993Z,0.52
2023-04-02T10:52:09.007Z,0.57
2023-04-02T10:55:04.136Z,0.60
2023-04-02T10:57:36.848Z,0.70
2023-04-02T11:00:15.698Z,0.80
2023-04-02T11:03:02.675Z,0.70
2023-04-02T11:05:40.196Z,0.70
2023-04-02T11:08:21.327Z,0.63
2023-04-02T11:10:57.741Z,0.80
2023-04-02T11:13:36.513Z,0.70
2023-04-02T11:16:03.777Z,0.90
2023-04-02T11:18:38.757Z,0.80
2023-04-02T11:21:54.926Z,0.80
2023-04-02T11:24:33.798Z,1.00
2023-04-02T11:27:14.308Z,0.85
2023-04-02T11:29:53.808Z,0.75
2023-04-02T11:32:20.529Z,0.80
2023-04-02T11:34:49.533Z,0.70
2023-04-02T11:37:34.210Z,0.80
2023-04-02T11:40:10.852Z,0.70
2023-04-02T11:42:48.461Z,0.88
2023-04-02T11:45:23.862Z,0.88
2023-04-02T11:48:02.103Z,0.70
2023-04-02T11:50:40.542Z,0.70
2023-04-02T11:53:14.660Z,0.70
2023-04-02T11:55:46.069Z,0.77
2023-04-02T11:58:22.725Z,0.70
2023-04-02T12:01:30.187Z,0.75
2023-04-02T12:04:26.883Z,0.80
2023-04-02T12:07:38.035Z,1.25
2023-04-02T12:10:19.658Z,1.40
2023-04-02T12:12:46.891Z,1.17
2023-04-02T12:15:32.370Z,1.02
2023-04-02T12:18:17.287Z,0.98
2023-04-02T12:20:50.806Z,1.13
2023-04-02T12:23:32.146Z,1.10
2023-04-02T12:26:01.270Z,1.00
2023-04-02T12:28:29.051Z,1.30
2023-04-02T12:31:13.071Z,1.33
2023-04-02T12:33:40.931Z,1.83
2023-04-02T12:36:17.942Z,1.55
2023-04-02T12:38:56.506Z,1.60
2023-04-02T12:41:32.230Z,1.70
2023-04-02T12:44:00.281Z,1.50
2023-04-02T12:46:28.142Z,1.90
2023-04-02T12:49:05.016Z,1.45
2023-04-02T12:54:01.175Z,1.73
2023-04-02T12:56:27.704Z,1.58
2023-04-02T12:58:54.104Z,1.48
2023-04-02T13:01:27.597Z,1.38
2023-04-02T13:04:14.808Z,1.60
2023-04-02T13:06:48.552Z,1.90
2023-04-02T13:09:35.168Z,1.70
2023-04-02T13:12:02.970Z,1.90
2023-04-02T13:14:30.540Z,1.58
2023-04-02T13:16:57.347Z,1.85
2023-04-02T13:19:34.040Z,1.40
2023-04-02T13:22:02.195Z,2.15
2023-04-02T13:24:33.455Z,1.90
2023-04-02T13:27:01.978Z,2.28
2023-04-02T13:29:30.329Z,2.30
2023-04-02T13:32:02.978Z,2.40
2023-04-02T13:34:30.017Z,1.95
2023-04-02T13:37:00.285Z,2.03
2023-04-02T13:39:27.165Z,2.30
2023-04-02T13:41:59.698Z,2.50
2023-04-02T13:44:34.541Z,2.97
2023-04-02T13:47:01.778Z,2.60
2023-04-02T13:49:28.455Z,2.97
2023-04-02T13:52:03.116Z,2.92
2023-04-02T13:54:49.348Z,2.63
2023-04-02T13:57:15.921Z,3.10
2023-04-02T13:59:42.561Z,3.05
2023-04-02T14:02:15.458Z,2.97
2023-04-02T14:04:48.586Z,2.90
2023-04-02T14:07:38.788Z,3.55
2023-04-02T14:10:40.529Z,2.83
2023-04-02T14:13:28.605Z,3.35
2023-04-02T14:16:11.914Z,3.75
2023-04-02T14:18:50.948Z,3.17
2023-04-02T14:21:31.168Z,3.42
2023-04-02T14:24:17.855Z,3.63
2023-04-02T14:26:50.359Z,4.13
2023-04-02T14:29:31.465Z,3.65
2023-04-02T14:32:14.926Z,3.60
2023-04-02T14:35:26.737Z,3.60
2023-04-02T14:38:20.429Z,3.45
2023-04-02T14:40:51.429Z,4.03
2023-04-02T14:43:27.774Z,3.17
2023-04-02T14:46:06.087Z,4.57
2023-04-02T14:48:54.494Z,3.28
2023-04-02T14:51:37.946Z,3.58
2023-04-02T14:54:12.237Z,2.72
2023-04-02T14:56:49.788Z,4.13
2023-04-02T14:59:25.539Z,3.33
2023-04-02T15:01:58.668Z,3.38
2023-04-02T15:04:52.674Z,3.20
2023-04-02T15:07:24.024Z,2.90
2023-04-02T15:10:02.054Z,3.40
2023-04-02T15:12:35.992Z,2.70
2023-04-02T15:15:24.395Z,3.15
2023-04-02T15:17:58.423Z,2.78
2023-04-02T15:20:25.886Z,2.47
2023-04-02T15:23:01.904Z,2.28
2023-04-02T15:25:43.220Z,2.40
2023-04-02T15:28:12.432Z,2.70
2023-04-02T15:30:44.881Z,2.28
2023-04-02T15:33:54.359Z,2.75
2023-04-02T15:36:41.606Z,2.42
2023-04-02T15:39:22.964Z,2.45
2023-04-02T15:42:25.408Z,2.63
2023-04-02T15:45:10.623Z,2.38
2023-04-02T15:47:52.172Z,2.55
2023-04-02T15:50:44.099Z,2.75
2023-04-02T15:53:45.887Z,2.15
2023-04-02T15:56:26.336Z,2.60
2023-04-02T15:59:08.512Z,2.78
2023-04-02T16:01:47.646Z,2.42
2023-04-02T16:04:23.321Z,2.38
2023-04-02T16:07:12.454Z,2.20
2023-04-02T16:10:18.008Z,2.08
2023-04-02T16:12:51.493Z,1.65
2023-04-02T16:15:24.377Z,2.08
2023-04-02T16:18:01.492Z,1.73
2023-04-02T16:20:34.101Z,1.98
2023-04-02T16:23:07.059Z,1.83
2023-04-02T16:25:59.130Z,1.67
2023-04-02T16:28:39.951Z,1.52
2023-04-02T16:31:37.543Z,1.83
2023-04-02T16:34:24.207Z,1.52
2023-04-02T16:37:19.764Z,1.58
2023-04-02T16:40:29.749Z,1.60
2023-04-02T16:42:59.301Z,1.60
2023-04-02T16:45:48.267Z,1.30
2023-04-02T16:48:33.182Z,1.77
2023-04-02T16:51:12.544Z,1.70
2023-04-02T16:54:02.305Z,1.70
2023-04-02T16:56:36.450Z,1.70
2023-04-02T16:59:09.452Z,1.88
2023-04-02T17:01:59.861Z,2.10
2023-04-02T17:04:53.427Z,1.95
2023-04-02T17:07:28.627Z,2.40
2023-04-02T17:10:14.102Z,2.00
2023-04-02T17:12:52.475Z,2.85
2023-04-02T17:15:28.285Z,2.35
2023-04-02T17:18:00.273Z,2.08
2023-04-02T17:20:27.480Z,2.35
2023-04-02T17:22:56.004Z,2.53
2023-04-02T17:25:33.962Z,2.63
2023-04-02T17:28:02.528Z,2.58
2023-04-02T17:30:41.154Z,2.50
2023-04-02T17:33:13.183Z,2.70
2023-04-02T17:35:39.529Z,2.25
2023-04-02T17:38:30.724Z,2.17
2023-04-02T17:41:23.258Z,2.60
2023-04-02T17:44:00.847Z,2.70
2023-04-02T17:46:53.360Z,2.92
2023-04-02T17:49:37.718Z,3.03
2023-04-02T17:52:18.485Z,2.83
2023-04-02T17:55:07.225Z,2.72
2023-04-02T17:58:01.470Z,2.78
2023-04-02T18:00:41.338Z,3.05
2023-04-02T18:03:31.859Z,2.47
2023-04-02T18:06:06.620Z,2.92
2023-04-02T18:08:42.383Z,2.88
2023-04-02T18:11:27.636Z,3.13
2023-04-02T18:14:00.533Z,3.10
2023-04-02T18:16:32.995Z,2.88
2023-04-02T18:19:14.799Z,2.75
2023-04-02T18:22:00.127Z,2.83
2023-04-02T18:24:49.320Z,2.72
2023-04-02T18:27:21.908Z,3.88
2023-04-02T18:30:06.643Z,2.75
2023-04-02T18:32:47.070Z,2.97
2023-04-02T18:35:16.931Z,2.97
2023-04-02T18:37:43.516Z,2.60
2023-04-02T18:40:30.021Z,2.63
2023-04-02T18:43:10.428Z,3.25
2023-04-02T18:45:52.138Z,3.08
2023-04-02T18:48:28.890Z,2.85
2023-04-02T18:50:55.484Z,2.55
2023-04-02T18:53:24.833Z,3.10
2023-04-02T18:56:02.525Z,2.28
2023-04-02T18:58:40.858Z,3.05
2023-04-02T19:01:13.429Z,3.25
2023-04-02T19:03:46.481Z,2.90
2023-04-02T19:06:22.143Z,3.10
2023-04-02T19:08:55.349Z,2.53
2023-04-02T19:11:29.350Z,3.13
2023-04-02T19:13:59.954Z,3.00
2023-04-02T19:16:45.560Z,3.20
2023-04-02T19:19:20.919Z,3.10
2023-04-02T19:22:03.413Z,2.67
2023-04-02T19:24:59.077Z,2.85
2023-04-02T19:27:44.507Z,3.00
2023-04-02T19:30:48.176Z,3.25
2023-04-02T19:33:33.560Z,3.03
2023-04-02T19:36:15.079Z,3.10
2023-04-02T19:39:13.953Z,3.28
2023-04-02T19:41:56.409Z,3.17
2023-04-02T19:44:23.060Z,3.42
2023-04-02T19:46:51.384Z,3.00
2023-04-02T19:49:28.261Z,2.70
2023-04-02T19:51:55.713Z,2.72
2023-04-02T19:54:22.933Z,2.65
2023-04-02T19:56:50.132Z,3.03
2023-04-02T19:59:18.757Z,3.00
2023-04-02T20:01:46.687Z,3.30
2023-04-02T20:04:14.202Z,3.13
2023-04-02T20:06:41.016Z,2.75
2023-04-02T20:09:08.677Z,3.78
2023-04-02T20:11:37.210Z,3.42
2023-04-02T20:14:04.174Z,3.10
2023-04-02T20:16:31.258Z,3.10
2023-04-02T20:18:58.186Z,3.22
2023-04-02T20:21:24.809Z,2.95
2023-04-02T20:23:54.952Z,3.25
2023-04-02T20:26:22.710Z,2.90
2023-04-02T20:28:49.418Z,2.85
2023-04-02T20:31:18.652Z,3.40
2023-04-02T20:33:45.768Z,2.88
2023-04-02T20:36:15.779Z,2.78
2023-04-02T20:38:43.237Z,2.78
2023-04-02T20:41:10.379Z,2.33
2023-04-02T20:43:40.244Z,3.08
2023-04-02T20:46:09.438Z,3.13
2023-04-02T20:48:37.854Z,2.75
2023-04-02T20:51:07.274Z,2.10
2023-04-02T20:53:35.709Z,2.20
2023-04-02T20:56:29.461Z,2.22
2023-04-02T20:58:55.881Z,1.92
2023-04-02T21:01:28.006Z,1.83
2023-04-02T21:03:57.039Z,2.15
2023-04-02T21:06:25.566Z,2.00
2023-04-02T21:08:52.382Z,1.63
2023-04-02T21:11:19.556Z,1.48
2023-04-02T21:13:46.140Z,1.67
2023-04-02T21:16:20.964Z,1.48
2023-04-02T21:18:49.590Z,1.90
2023-04-02T21:21:16.617Z,1.38
2023-04-02T21:23:44.898Z,1.55
2023-04-02T21:26:17.776Z,1.70
2023-04-02T21:28:45.528Z,1.90
2023-04-02T21:31:18.291Z,1.67
2023-04-02T21:33:50.660Z,1.95
2023-04-02T21:36:23.060Z,1.48
2023-04-02T21:38:58.029Z,1.50
2023-04-02T21:41:30.240Z,1.65
2023-04-02T21:43:58.676Z,1.77
2023-04-02T21:46:27.810Z,1.70
2023-04-02T21:48:56.428Z,1.88
2023-04-02T21:51:25.869Z,2.03
2023-04-02T21:53:55.919Z,1.83
2023-04-02T21:56:25.213Z,1.60
2023-04-02T21:58:52.262Z,1.50
2023-04-02T22:01:27.463Z,1.60
2023-04-02T22:04:00.205Z,1.50
2023-04-02T22:06:29.763Z,1.30
2023-04-02T22:09:01.367Z,1.45
2023-04-02T22:11:30.469Z,1.35
2023-04-02T22:13:57.557Z,1.83
2023-04-02T22:16:27.347Z,1.67
2023-04-02T22:18:56.250Z,1.67
2023-04-02T22:21:23.107Z,1.88
2023-04-02T22:23:49.955Z,1.23
2023-04-02T22:26:18.016Z,1.80
2023-04-02T22:28:44.840Z,1.60
2023-04-02T22:31:22.003Z,1.42
2023-04-02T22:36:16.605Z,1.65
2023-04-02T22:38:43.084Z,1.98
2023-04-02T22:41:18.042Z,1.75
2023-04-02T22:43:45.593Z,1.70
2023-04-02T22:46:14.581Z,1.70
2023-04-02T22:48:42.106Z,1.98
2023-04-02T22:51:10.272Z,2.25
2023-04-02T22:53:38.162Z,1.95
2023-04-02T22:56:13.736Z,2.03
2023-04-02T22:58:41.248Z,1.67
2023-04-02T23:01:12.121Z,2.03
2023-04-02T23:03:39.104Z,1.90
2023-04-02T23:06:11.013Z,1.83
2023-04-02T23:08:38.732Z,1.73
2023-04-02T23:11:14.333Z,2.08
2023-04-02T23:13:40.941Z,2.00
2023-04-02T23:16:10.693Z,1.98
2023-04-02T23:18:38.362Z,1.80
2023-04-02T23:21:06.041Z,2.20
2023-04-02T23:23:33.300Z,1.80
2023-04-02T23:26:12.191Z,2.17
2023-04-02T23:28:39.551Z,1.80
2023-04-02T23:31:08.222Z,1.75
2023-04-02T23:33:35.773Z,2.00
2023-04-02T23:36:10.318Z,2.05
2023-04-02T23:38:36.882Z,1.83
2023-04-02T23:41:03.399Z,1.95
2023-04-02T23:43:30.215Z,1.98
2023-04-02T23:45:56.790Z,1.88
2023-04-02T23:48:23.377Z,2.20
2023-04-02T23:50:49.939Z,2.08
2023-04-02T23:53:16.752Z,2.05
2023-04-02T23:55:43.186Z,1.88
2023-04-02T23:58:09.633Z,2.00
